sensor_id;sensor_type;location;lat;lon;timestamp;P1;durP1;ratioP1;P2;durP2;ratioP2
79464;SDS011;68932;47.410;8.232;2024-03-23T00:53:52;5.80;;;3.40;;
79464;SDS011;68932;47.410;8.232;2024-03-23T00:56:20;4.80;;;3.30;;
79464;SDS011;68932;47.410;8.232;2024-03-23T00:58:48;6.20;;;3.80;;
79464;SDS011;68932;47.410;8.232;2024-03-23T01:01:16;4.20;;;3.30;;
79464;SDS011;68932;47.410;8.232;2024-03-23T01:03:44;5.00;;;3.20;;
79464;SDS011;68932;47.410;8.232;2024-03-23T01:06:12;5.60;;;3.40;;
79464;SDS011;68932;47.410;8.232;2024-03-23T01:08:40;5.20;;;3.20;;
79464;SDS011;68932;47.410;8.232;2024-03-23T01:11:07;4.50;;;3.60;;
79464;SDS011;68932;47.410;8.232;2024-03-23T01:13:35;4.40;;;3.90;;
79464;SDS011;68932;47.410;8.232;2024-03-23T01:16:04;7.50;;;3.90;;
79464;SDS011;68932;47.410;8.232;2024-03-23T01:18:32;7.60;;;3.60;;
79464;SDS011;68932;47.410;8.232;2024-03-23T01:21:00;5.60;;;3.90;;
79464;SDS011;68932;47.410;8.232;2024-03-23T01:23:28;4.30;;;3.30;;
79464;SDS011;68932;47.410;8.232;2024-03-23T01:25:56;5.50;;;3.40;;
79464;SDS011;68932;47.410;8.232;2024-03-23T01:28:24;6.60;;;3.90;;
79464;SDS011;68932;47.410;8.232;2024-03-23T01:30:51;6.90;;;3.80;;
79464;SDS011;68932;47.410;8.232;2024-03-23T01:33:19;5.30;;;3.70;;
79464;SDS011;68932;47.410;8.232;2024-03-23T01:35:47;4.80;;;3.80;;
79464;SDS011;68932;47.410;8.232;2024-03-23T01:38:15;5.80;;;3.40;;
79464;SDS011;68932;47.410;8.232;2024-03-23T01:40:43;6.50;;;3.40;;
79464;SDS011;68932;47.410;8.232;2024-03-23T01:43:11;6.30;;;4.70;;
79464;SDS011;68932;47.410;8.232;2024-03-23T01:45:39;5.50;;;4.40;;
79464;SDS011;68932;47.410;8.232;2024-03-23T01:48:08;4.90;;;3.60;;
79464;SDS011;68932;47.410;8.232;2024-03-23T01:50:36;6.70;;;3.30;;
79464;SDS011;68932;47.410;8.232;2024-03-23T01:53:04;5.60;;;3.70;;
79464;SDS011;68932;47.410;8.232;2024-03-23T01:55:33;9.00;;;4.00;;
79464;SDS011;68932;47.410;8.232;2024-03-23T01:58:01;8.50;;;3.90;;
79464;SDS011;68932;47.410;8.232;2024-03-23T02:00:29;5.70;;;3.90;;
79464;SDS011;68932;47.410;8.232;2024-03-23T02:02:57;5.80;;;3.90;;
79464;SDS011;68932;47.410;8.232;2024-03-23T02:05:25;5.70;;;4.20;;
79464;SDS011;68932;47.410;8.232;2024-03-23T02:07:53;8.60;;;4.10;;
79464;SDS011;68932;47.410;8.232;2024-03-23T02:10:21;5.30;;;3.70;;
79464;SDS011;68932;47.410;8.232;2024-03-23T02:12:49;5.60;;;3.40;;
79464;SDS011;68932;47.410;8.232;2024-03-23T02:15:17;7.30;;;3.60;;
79464;SDS011;68932;47.410;8.232;2024-03-23T02:17:45;4.90;;;3.90;;
79464;SDS011;68932;47.410;8.232;2024-03-23T02:20:13;5.10;;;3.70;;
79464;SDS011;68932;47.410;8.232;2024-03-23T02:22:41;4.60;;;3.40;;
79464;SDS011;68932;47.410;8.232;2024-03-23T02:25:09;6.70;;;3.90;;
79464;SDS011;68932;47.410;8.232;2024-03-23T02:27:37;4.40;;;3.50;;
79464;SDS011;68932;47.410;8.232;2024-03-23T02:30:06;5.40;;;3.70;;
79464;SDS011;68932;47.410;8.232;2024-03-23T02:32:35;5.70;;;3.70;;
79464;SDS011;68932;47.410;8.232;2024-03-23T02:35:03;5.30;;;4.40;;
79464;SDS011;68932;47.410;8.232;2024-03-23T02:37:32;4.90;;;3.70;;
79464;SDS011;68932;47.410;8.232;2024-03-23T02:40:00;5.40;;;4.10;;
79464;SDS011;68932;47.410;8.232;2024-03-23T02:42:28;6.70;;;3.60;;
79464;SDS011;68932;47.410;8.232;2024-03-23T02:44:56;4.40;;;3.70;;
79464;SDS011;68932;47.410;8.232;2024-03-23T02:47:24;4.90;;;3.80;;
79464;SDS011;68932;47.410;8.232;2024-03-23T02:49:52;4.40;;;3.90;;
79464;SDS011;68932;47.410;8.232;2024-03-23T02:52:20;5.40;;;3.60;;
79464;SDS011;68932;47.410;8.232;2024-03-23T02:54:48;4.50;;;3.60;;
79464;SDS011;68932;47.410;8.232;2024-03-23T02:57:16;5.30;;;3.60;;
79464;SDS011;68932;47.410;8.232;2024-03-23T02:59:44;3.90;;;3.40;;
79464;SDS011;68932;47.410;8.232;2024-03-23T03:02:12;5.70;;;3.80;;
79464;SDS011;68932;47.410;8.232;2024-03-23T03:04:41;4.60;;;3.20;;
79464;SDS011;68932;47.410;8.232;2024-03-23T03:07:09;7.80;;;3.60;;
79464;SDS011;68932;47.410;8.232;2024-03-23T03:09:37;7.00;;;3.90;;
79464;SDS011;68932;47.410;8.232;2024-03-23T03:12:05;4.00;;;3.60;;
79464;SDS011;68932;47.410;8.232;2024-03-23T03:14:34;4.20;;;3.80;;
79464;SDS011;68932;47.410;8.232;2024-03-23T03:17:02;5.90;;;4.00;;
79464;SDS011;68932;47.410;8.232;2024-03-23T03:19:30;5.50;;;4.40;;
79464;SDS011;68932;47.410;8.232;2024-03-23T03:21:58;5.50;;;4.80;;
79464;SDS011;68932;47.410;8.232;2024-03-23T03:24:26;4.60;;;3.40;;
79464;SDS011;68932;47.410;8.232;2024-03-23T03:26:54;5.90;;;3.70;;
79464;SDS011;68932;47.410;8.232;2024-03-23T03:29:22;5.20;;;3.80;;
79464;SDS011;68932;47.410;8.232;2024-03-23T03:31:50;6.00;;;3.90;;
79464;SDS011;68932;47.410;8.232;2024-03-23T03:34:18;6.50;;;3.50;;
79464;SDS011;68932;47.410;8.232;2024-03-23T03:36:46;5.80;;;4.10;;
79464;SDS011;68932;47.410;8.232;2024-03-23T03:39:14;5.60;;;3.50;;
79464;SDS011;68932;47.410;8.232;2024-03-23T03:41:42;4.80;;;3.50;;
79464;SDS011;68932;47.410;8.232;2024-03-23T03:44:10;4.60;;;3.10;;
79464;SDS011;68932;47.410;8.232;2024-03-23T03:46:37;4.70;;;3.80;;
79464;SDS011;68932;47.410;8.232;2024-03-23T03:49:05;5.20;;;4.00;;
79464;SDS011;68932;47.410;8.232;2024-03-23T03:51:33;6.40;;;3.60;;
79464;SDS011;68932;47.410;8.232;2024-03-23T03:54:01;6.10;;;3.30;;
79464;SDS011;68932;47.410;8.232;2024-03-23T03:56:29;7.00;;;4.30;;
79464;SDS011;68932;47.410;8.232;2024-03-23T03:58:57;4.80;;;4.20;;
79464;SDS011;68932;47.410;8.232;2024-03-23T04:01:25;5.70;;;3.80;;
79464;SDS011;68932;47.410;8.232;2024-03-23T04:03:53;5.50;;;3.80;;
79464;SDS011;68932;47.410;8.232;2024-03-23T04:06:21;5.40;;;4.10;;
79464;SDS011;68932;47.410;8.232;2024-03-23T04:08:49;5.50;;;3.60;;
79464;SDS011;68932;47.410;8.232;2024-03-23T04:11:17;6.40;;;4.00;;
79464;SDS011;68932;47.410;8.232;2024-03-23T04:13:44;5.20;;;3.80;;
79464;SDS011;68932;47.410;8.232;2024-03-23T04:16:12;5.10;;;3.40;;
79464;SDS011;68932;47.410;8.232;2024-03-23T04:18:50;7.10;;;3.60;;
79464;SDS011;68932;47.410;8.232;2024-03-23T04:21:18;6.50;;;4.00;;
79464;SDS011;68932;47.410;8.232;2024-03-23T04:23:46;4.30;;;3.90;;
79464;SDS011;68932;47.410;8.232;2024-03-23T04:26:14;5.40;;;3.60;;
79464;SDS011;68932;47.410;8.232;2024-03-23T04:28:42;4.90;;;3.30;;
79464;SDS011;68932;47.410;8.232;2024-03-23T04:31:10;6.30;;;3.60;;
79464;SDS011;68932;47.410;8.232;2024-03-23T04:33:38;5.20;;;3.20;;
79464;SDS011;68932;47.410;8.232;2024-03-23T04:36:07;4.50;;;3.40;;
79464;SDS011;68932;47.410;8.232;2024-03-23T04:38:35;3.90;;;3.10;;
79464;SDS011;68932;47.410;8.232;2024-03-23T04:41:03;7.50;;;3.90;;
79464;SDS011;68932;47.410;8.232;2024-03-23T04:43:31;4.30;;;3.50;;
79464;SDS011;68932;47.410;8.232;2024-03-23T04:45:59;5.40;;;3.60;;
79464;SDS011;68932;47.410;8.232;2024-03-23T04:48:27;3.70;;;2.90;;
79464;SDS011;68932;47.410;8.232;2024-03-23T04:50:58;5.60;;;3.50;;
79464;SDS011;68932;47.410;8.232;2024-03-23T04:53:25;5.00;;;3.60;;
79464;SDS011;68932;47.410;8.232;2024-03-23T04:55:53;4.80;;;3.90;;
79464;SDS011;68932;47.410;8.232;2024-03-23T04:58:22;5.30;;;3.80;;
79464;SDS011;68932;47.410;8.232;2024-03-23T05:00:53;5.80;;;3.10;;
79464;SDS011;68932;47.410;8.232;2024-03-23T05:03:21;4.30;;;3.40;;
79464;SDS011;68932;47.410;8.232;2024-03-23T05:05:49;4.50;;;3.50;;
79464;SDS011;68932;47.410;8.232;2024-03-23T05:08:18;5.40;;;4.00;;
79464;SDS011;68932;47.410;8.232;2024-03-23T05:10:45;4.60;;;3.50;;
79464;SDS011;68932;47.410;8.232;2024-03-23T05:13:13;5.00;;;3.80;;
79464;SDS011;68932;47.410;8.232;2024-03-23T05:15:41;4.80;;;3.80;;
79464;SDS011;68932;47.410;8.232;2024-03-23T05:18:09;4.20;;;3.60;;
79464;SDS011;68932;47.410;8.232;2024-03-23T05:20:37;11.10;;;4.10;;
79464;SDS011;68932;47.410;8.232;2024-03-23T05:23:05;4.30;;;3.10;;
79464;SDS011;68932;47.410;8.232;2024-03-23T05:25:33;5.20;;;3.20;;
79464;SDS011;68932;47.410;8.232;2024-03-23T05:28:01;4.70;;;3.40;;
79464;SDS011;68932;47.410;8.232;2024-03-23T05:30:29;5.10;;;3.50;;
79464;SDS011;68932;47.410;8.232;2024-03-23T05:32:57;5.00;;;2.90;;
79464;SDS011;68932;47.410;8.232;2024-03-23T05:35:25;3.90;;;3.10;;
79464;SDS011;68932;47.410;8.232;2024-03-23T05:37:53;6.90;;;3.10;;
79464;SDS011;68932;47.410;8.232;2024-03-23T05:40:20;4.80;;;3.10;;
79464;SDS011;68932;47.410;8.232;2024-03-23T05:42:48;3.40;;;2.20;;
79464;SDS011;68932;47.410;8.232;2024-03-23T05:45:16;4.40;;;2.20;;
79464;SDS011;68932;47.410;8.232;2024-03-23T05:47:44;2.50;;;1.90;;
79464;SDS011;68932;47.410;8.232;2024-03-23T05:50:12;2.70;;;2.00;;
79464;SDS011;68932;47.410;8.232;2024-03-23T05:52:41;3.10;;;2.10;;
79464;SDS011;68932;47.410;8.232;2024-03-23T05:55:09;2.90;;;1.60;;
79464;SDS011;68932;47.410;8.232;2024-03-23T05:57:36;2.40;;;1.80;;
79464;SDS011;68932;47.410;8.232;2024-03-23T06:00:06;2.30;;;1.80;;
79464;SDS011;68932;47.410;8.232;2024-03-23T06:02:34;3.70;;;2.50;;
79464;SDS011;68932;47.410;8.232;2024-03-23T06:05:03;6.00;;;2.80;;
79464;SDS011;68932;47.410;8.232;2024-03-23T06:07:32;5.50;;;3.30;;
79464;SDS011;68932;47.410;8.232;2024-03-23T06:10:00;6.80;;;3.50;;
79464;SDS011;68932;47.410;8.232;2024-03-23T06:12:28;6.20;;;3.90;;
79464;SDS011;68932;47.410;8.232;2024-03-23T06:14:56;5.70;;;3.90;;
79464;SDS011;68932;47.410;8.232;2024-03-23T06:17:24;5.30;;;3.60;;
79464;SDS011;68932;47.410;8.232;2024-03-23T06:19:52;4.80;;;3.70;;
79464;SDS011;68932;47.410;8.232;2024-03-23T06:22:20;5.40;;;3.30;;
79464;SDS011;68932;47.410;8.232;2024-03-23T06:24:48;5.60;;;3.90;;
79464;SDS011;68932;47.410;8.232;2024-03-23T06:27:16;4.80;;;3.80;;
79464;SDS011;68932;47.410;8.232;2024-03-23T06:29:44;5.70;;;3.80;;
79464;SDS011;68932;47.410;8.232;2024-03-23T06:32:11;6.80;;;4.00;;
79464;SDS011;68932;47.410;8.232;2024-03-23T06:34:42;5.20;;;4.00;;
79464;SDS011;68932;47.410;8.232;2024-03-23T06:37:11;6.30;;;3.80;;
79464;SDS011;68932;47.410;8.232;2024-03-23T06:39:39;5.40;;;4.10;;
79464;SDS011;68932;47.410;8.232;2024-03-23T06:42:07;6.00;;;3.80;;
79464;SDS011;68932;47.410;8.232;2024-03-23T06:44:35;5.30;;;4.10;;
79464;SDS011;68932;47.410;8.232;2024-03-23T06:47:03;5.70;;;4.30;;
79464;SDS011;68932;47.410;8.232;2024-03-23T06:49:32;5.10;;;3.80;;
79464;SDS011;68932;47.410;8.232;2024-03-23T06:52:00;2.90;;;2.40;;
79464;SDS011;68932;47.410;8.232;2024-03-23T06:54:27;5.30;;;3.20;;
79464;SDS011;68932;47.410;8.232;2024-03-23T06:56:55;3.90;;;3.10;;
79464;SDS011;68932;47.410;8.232;2024-03-23T06:59:23;5.20;;;3.30;;
79464;SDS011;68932;47.410;8.232;2024-03-23T07:01:51;5.70;;;3.50;;
79464;SDS011;68932;47.410;8.232;2024-03-23T07:04:19;5.70;;;2.80;;
79464;SDS011;68932;47.410;8.232;2024-03-23T07:06:47;4.50;;;2.60;;
79464;SDS011;68932;47.410;8.232;2024-03-23T07:09:15;4.20;;;2.80;;
79464;SDS011;68932;47.410;8.232;2024-03-23T07:11:43;3.00;;;1.80;;
79464;SDS011;68932;47.410;8.232;2024-03-23T07:14:11;2.70;;;1.80;;
79464;SDS011;68932;47.410;8.232;2024-03-23T07:16:39;3.10;;;2.40;;
79464;SDS011;68932;47.410;8.232;2024-03-23T07:19:07;3.30;;;2.00;;
79464;SDS011;68932;47.410;8.232;2024-03-23T07:21:35;3.00;;;2.30;;
79464;SDS011;68932;47.410;8.232;2024-03-23T07:24:03;2.50;;;2.20;;
79464;SDS011;68932;47.410;8.232;2024-03-23T07:26:32;2.60;;;2.40;;
79464;SDS011;68932;47.410;8.232;2024-03-23T07:29:00;4.00;;;3.60;;
79464;SDS011;68932;47.410;8.232;2024-03-23T07:31:28;3.40;;;2.00;;
79464;SDS011;68932;47.410;8.232;2024-03-23T07:33:56;2.80;;;2.10;;
79464;SDS011;68932;47.410;8.232;2024-03-23T07:36:24;1.90;;;1.40;;
79464;SDS011;68932;47.410;8.232;2024-03-23T07:38:52;2.10;;;1.50;;
79464;SDS011;68932;47.410;8.232;2024-03-23T07:41:20;1.60;;;1.40;;
79464;SDS011;68932;47.410;8.232;2024-03-23T07:43:48;1.60;;;1.10;;
79464;SDS011;68932;47.410;8.232;2024-03-23T07:46:16;1.00;;;0.70;;
79464;SDS011;68932;47.410;8.232;2024-03-23T07:48:44;1.30;;;0.60;;
79464;SDS011;68932;47.410;8.232;2024-03-23T07:51:15;1.90;;;0.90;;
79464;SDS011;68932;47.410;8.232;2024-03-23T07:53:44;0.70;;;0.60;;
79464;SDS011;68932;47.410;8.232;2024-03-23T07:56:12;1.00;;;0.70;;
79464;SDS011;68932;47.410;8.232;2024-03-23T07:58:41;0.90;;;0.60;;
79464;SDS011;68932;47.410;8.232;2024-03-23T08:01:10;1.10;;;1.00;;
79464;SDS011;68932;47.410;8.232;2024-03-23T08:03:39;1.70;;;0.80;;
79464;SDS011;68932;47.410;8.232;2024-03-23T08:06:09;1.00;;;0.80;;
79464;SDS011;68932;47.410;8.232;2024-03-23T08:08:38;1.20;;;0.70;;
79464;SDS011;68932;47.410;8.232;2024-03-23T08:11:07;0.90;;;0.70;;
79464;SDS011;68932;47.410;8.232;2024-03-23T08:13:36;2.20;;;0.70;;
79464;SDS011;68932;47.410;8.232;2024-03-23T08:16:05;1.50;;;0.70;;
79464;SDS011;68932;47.410;8.232;2024-03-23T08:18:34;1.70;;;0.90;;
79464;SDS011;68932;47.410;8.232;2024-03-23T08:21:02;1.60;;;0.90;;
79464;SDS011;68932;47.410;8.232;2024-03-23T08:23:32;2.20;;;1.10;;
79464;SDS011;68932;47.410;8.232;2024-03-23T08:26:01;2.60;;;1.20;;
79464;SDS011;68932;47.410;8.232;2024-03-23T08:28:30;2.30;;;1.00;;
79464;SDS011;68932;47.410;8.232;2024-03-23T08:31:00;3.60;;;1.50;;
79464;SDS011;68932;47.410;8.232;2024-03-23T08:33:29;1.90;;;1.00;;
79464;SDS011;68932;47.410;8.232;2024-03-23T08:35:57;2.70;;;1.50;;
79464;SDS011;68932;47.410;8.232;2024-03-23T08:38:26;4.10;;;1.50;;
79464;SDS011;68932;47.410;8.232;2024-03-23T08:40:58;3.40;;;1.70;;
79464;SDS011;68932;47.410;8.232;2024-03-23T08:43:26;4.10;;;0.90;;
79464;SDS011;68932;47.410;8.232;2024-03-23T08:46:02;2.30;;;1.30;;
79464;SDS011;68932;47.410;8.232;2024-03-23T08:48:31;3.70;;;1.50;;
79464;SDS011;68932;47.410;8.232;2024-03-23T08:51:01;3.80;;;1.50;;
79464;SDS011;68932;47.410;8.232;2024-03-23T08:53:29;5.10;;;1.50;;
79464;SDS011;68932;47.410;8.232;2024-03-23T08:55:58;2.90;;;1.70;;
79464;SDS011;68932;47.410;8.232;2024-03-23T08:58:27;3.40;;;1.30;;
79464;SDS011;68932;47.410;8.232;2024-03-23T09:00:57;1.90;;;1.60;;
79464;SDS011;68932;47.410;8.232;2024-03-23T09:03:33;3.60;;;1.20;;
79464;SDS011;68932;47.410;8.232;2024-03-23T09:06:01;3.40;;;1.00;;
79464;SDS011;68932;47.410;8.232;2024-03-23T09:08:32;2.20;;;1.40;;
79464;SDS011;68932;47.410;8.232;2024-03-23T09:11:03;3.70;;;1.40;;
79464;SDS011;68932;47.410;8.232;2024-03-23T09:13:31;2.90;;;1.00;;
79464;SDS011;68932;47.410;8.232;2024-03-23T09:16:00;4.10;;;1.70;;
79464;SDS011;68932;47.410;8.232;2024-03-23T09:18:30;2.80;;;1.50;;
79464;SDS011;68932;47.410;8.232;2024-03-23T09:20:59;5.70;;;2.20;;
79464;SDS011;68932;47.410;8.232;2024-03-23T09:23:27;6.00;;;2.20;;
79464;SDS011;68932;47.410;8.232;2024-03-23T09:25:55;2.80;;;1.10;;
79464;SDS011;68932;47.410;8.232;2024-03-23T09:28:23;3.90;;;1.20;;
79464;SDS011;68932;47.410;8.232;2024-03-23T09:30:51;2.70;;;2.30;;
79464;SDS011;68932;47.410;8.232;2024-03-23T09:33:19;3.90;;;1.80;;
79464;SDS011;68932;47.410;8.232;2024-03-23T09:35:47;5.70;;;1.50;;
79464;SDS011;68932;47.410;8.232;2024-03-23T09:38:15;6.10;;;1.70;;
79464;SDS011;68932;47.410;8.232;2024-03-23T09:40:43;5.20;;;2.00;;
79464;SDS011;68932;47.410;8.232;2024-03-23T09:43:11;5.40;;;1.50;;
79464;SDS011;68932;47.410;8.232;2024-03-23T09:45:40;4.50;;;1.50;;
79464;SDS011;68932;47.410;8.232;2024-03-23T09:48:10;2.60;;;1.40;;
79464;SDS011;68932;47.410;8.232;2024-03-23T09:50:38;4.70;;;1.50;;
79464;SDS011;68932;47.410;8.232;2024-03-23T09:53:07;3.40;;;1.50;;
79464;SDS011;68932;47.410;8.232;2024-03-23T09:55:36;3.20;;;1.50;;
79464;SDS011;68932;47.410;8.232;2024-03-23T09:58:05;6.30;;;1.70;;
79464;SDS011;68932;47.410;8.232;2024-03-23T10:00:33;6.10;;;1.80;;
79464;SDS011;68932;47.410;8.232;2024-03-23T10:03:02;4.40;;;1.40;;
79464;SDS011;68932;47.410;8.232;2024-03-23T10:05:30;4.40;;;1.40;;
79464;SDS011;68932;47.410;8.232;2024-03-23T10:07:59;4.00;;;1.60;;
79464;SDS011;68932;47.410;8.232;2024-03-23T10:10:43;3.70;;;1.60;;
79464;SDS011;68932;47.410;8.232;2024-03-23T10:13:12;4.90;;;1.30;;
79464;SDS011;68932;47.410;8.232;2024-03-23T10:15:55;6.10;;;1.80;;
79464;SDS011;68932;47.410;8.232;2024-03-23T10:18:25;4.80;;;1.80;;
79464;SDS011;68932;47.410;8.232;2024-03-23T10:21:06;5.30;;;1.50;;
79464;SDS011;68932;47.410;8.232;2024-03-23T10:23:35;6.40;;;1.40;;
79464;SDS011;68932;47.410;8.232;2024-03-23T10:26:13;6.20;;;2.40;;
79464;SDS011;68932;47.410;8.232;2024-03-23T10:28:56;5.90;;;1.40;;
79464;SDS011;68932;47.410;8.232;2024-03-23T10:31:25;5.00;;;1.90;;
79464;SDS011;68932;47.410;8.232;2024-03-23T10:33:53;4.60;;;1.20;;
79464;SDS011;68932;47.410;8.232;2024-03-23T10:36:21;4.50;;;1.40;;
79464;SDS011;68932;47.410;8.232;2024-03-23T10:38:50;4.90;;;1.20;;
79464;SDS011;68932;47.410;8.232;2024-03-23T10:41:20;4.80;;;1.50;;
79464;SDS011;68932;47.410;8.232;2024-03-23T10:43:49;5.10;;;1.60;;
79464;SDS011;68932;47.410;8.232;2024-03-23T10:46:17;5.00;;;1.30;;
79464;SDS011;68932;47.410;8.232;2024-03-23T10:48:45;2.30;;;1.20;;
79464;SDS011;68932;47.410;8.232;2024-03-23T10:51:13;3.30;;;1.30;;
79464;SDS011;68932;47.410;8.232;2024-03-23T10:53:42;2.90;;;1.40;;
79464;SDS011;68932;47.410;8.232;2024-03-23T10:56:11;3.50;;;1.10;;
79464;SDS011;68932;47.410;8.232;2024-03-23T10:58:42;5.90;;;1.40;;
79464;SDS011;68932;47.410;8.232;2024-03-23T11:03:44;4.30;;;1.30;;
79464;SDS011;68932;47.410;8.232;2024-03-23T11:06:33;3.80;;;1.60;;
79464;SDS011;68932;47.410;8.232;2024-03-23T11:09:01;4.20;;;1.20;;
79464;SDS011;68932;47.410;8.232;2024-03-23T11:11:30;2.80;;;1.10;;
79464;SDS011;68932;47.410;8.232;2024-03-23T11:13:58;2.60;;;0.90;;
79464;SDS011;68932;47.410;8.232;2024-03-23T11:16:38;5.50;;;1.30;;
79464;SDS011;68932;47.410;8.232;2024-03-23T11:22:01;3.00;;;1.10;;
79464;SDS011;68932;47.410;8.232;2024-03-23T11:24:30;3.40;;;1.60;;
79464;SDS011;68932;47.410;8.232;2024-03-23T11:26:59;3.80;;;1.10;;
79464;SDS011;68932;47.410;8.232;2024-03-23T11:29:27;2.80;;;1.10;;
79464;SDS011;68932;47.410;8.232;2024-03-23T11:31:55;2.80;;;1.00;;
79464;SDS011;68932;47.410;8.232;2024-03-23T11:34:23;3.90;;;1.40;;
79464;SDS011;68932;47.410;8.232;2024-03-23T11:36:51;2.60;;;1.10;;
79464;SDS011;68932;47.410;8.232;2024-03-23T11:39:30;4.30;;;1.40;;
79464;SDS011;68932;47.410;8.232;2024-03-23T11:41:58;3.80;;;1.40;;
79464;SDS011;68932;47.410;8.232;2024-03-23T11:44:26;4.00;;;1.10;;
79464;SDS011;68932;47.410;8.232;2024-03-23T11:46:54;3.30;;;1.10;;
79464;SDS011;68932;47.410;8.232;2024-03-23T11:49:35;4.60;;;1.40;;
79464;SDS011;68932;47.410;8.232;2024-03-23T11:52:04;4.20;;;1.10;;
79464;SDS011;68932;47.410;8.232;2024-03-23T11:54:32;2.90;;;1.00;;
79464;SDS011;68932;47.410;8.232;2024-03-23T11:57:01;1.90;;;0.80;;
79464;SDS011;68932;47.410;8.232;2024-03-23T11:59:34;3.10;;;1.20;;
79464;SDS011;68932;47.410;8.232;2024-03-23T12:02:07;2.50;;;0.60;;
79464;SDS011;68932;47.410;8.232;2024-03-23T12:04:35;2.70;;;0.90;;
79464;SDS011;68932;47.410;8.232;2024-03-23T12:07:10;2.90;;;0.70;;
79464;SDS011;68932;47.410;8.232;2024-03-23T12:09:39;2.50;;;1.10;;
79464;SDS011;68932;47.410;8.232;2024-03-23T12:12:10;4.90;;;1.30;;
79464;SDS011;68932;47.410;8.232;2024-03-23T12:14:40;3.40;;;1.20;;
79464;SDS011;68932;47.410;8.232;2024-03-23T12:17:09;5.90;;;1.60;;
79464;SDS011;68932;47.410;8.232;2024-03-23T12:22:08;2.90;;;1.60;;
79464;SDS011;68932;47.410;8.232;2024-03-23T12:24:36;3.90;;;1.00;;
79464;SDS011;68932;47.410;8.232;2024-03-23T12:27:04;3.40;;;1.40;;
79464;SDS011;68932;47.410;8.232;2024-03-23T12:29:32;4.30;;;1.00;;
79464;SDS011;68932;47.410;8.232;2024-03-23T12:32:01;3.90;;;1.20;;
79464;SDS011;68932;47.410;8.232;2024-03-23T12:34:29;2.90;;;1.10;;
79464;SDS011;68932;47.410;8.232;2024-03-23T12:36:57;4.60;;;1.60;;
79464;SDS011;68932;47.410;8.232;2024-03-23T12:39:25;3.20;;;1.60;;
79464;SDS011;68932;47.410;8.232;2024-03-23T12:41:54;5.10;;;1.40;;
79464;SDS011;68932;47.410;8.232;2024-03-23T12:44:22;3.30;;;0.90;;
79464;SDS011;68932;47.410;8.232;2024-03-23T12:46:50;1.80;;;1.00;;
79464;SDS011;68932;47.410;8.232;2024-03-23T12:49:18;2.50;;;1.20;;
79464;SDS011;68932;47.410;8.232;2024-03-23T12:51:47;5.30;;;2.00;;
79464;SDS011;68932;47.410;8.232;2024-03-23T12:54:20;3.10;;;1.40;;
79464;SDS011;68932;47.410;8.232;2024-03-23T12:56:49;5.70;;;1.30;;
79464;SDS011;68932;47.410;8.232;2024-03-23T12:59:17;3.10;;;1.50;;
79464;SDS011;68932;47.410;8.232;2024-03-23T13:01:45;3.90;;;1.20;;
79464;SDS011;68932;47.410;8.232;2024-03-23T13:04:13;3.90;;;1.70;;
79464;SDS011;68932;47.410;8.232;2024-03-23T13:06:41;4.70;;;1.10;;
79464;SDS011;68932;47.410;8.232;2024-03-23T13:09:09;3.40;;;0.90;;
79464;SDS011;68932;47.410;8.232;2024-03-23T13:11:37;4.70;;;0.90;;
79464;SDS011;68932;47.410;8.232;2024-03-23T13:14:05;2.90;;;1.10;;
79464;SDS011;68932;47.410;8.232;2024-03-23T13:16:32;3.10;;;0.90;;
79464;SDS011;68932;47.410;8.232;2024-03-23T13:19:00;3.80;;;2.00;;
79464;SDS011;68932;47.410;8.232;2024-03-23T13:21:28;3.20;;;1.30;;
79464;SDS011;68932;47.410;8.232;2024-03-23T13:23:56;3.80;;;1.20;;
79464;SDS011;68932;47.410;8.232;2024-03-23T13:26:24;3.40;;;1.10;;
79464;SDS011;68932;47.410;8.232;2024-03-23T13:28:52;4.40;;;1.20;;
79464;SDS011;68932;47.410;8.232;2024-03-23T13:31:21;2.60;;;1.10;;
79464;SDS011;68932;47.410;8.232;2024-03-23T13:33:48;1.80;;;0.90;;
79464;SDS011;68932;47.410;8.232;2024-03-23T13:36:16;3.60;;;1.50;;
79464;SDS011;68932;47.410;8.232;2024-03-23T13:38:44;3.30;;;1.20;;
79464;SDS011;68932;47.410;8.232;2024-03-23T13:41:12;3.80;;;1.40;;
79464;SDS011;68932;47.410;8.232;2024-03-23T13:43:40;3.30;;;1.10;;
79464;SDS011;68932;47.410;8.232;2024-03-23T13:46:08;2.40;;;1.20;;
79464;SDS011;68932;47.410;8.232;2024-03-23T13:48:36;3.10;;;1.50;;
79464;SDS011;68932;47.410;8.232;2024-03-23T13:51:06;5.10;;;1.20;;
79464;SDS011;68932;47.410;8.232;2024-03-23T13:53:34;4.50;;;1.20;;
79464;SDS011;68932;47.410;8.232;2024-03-23T13:56:02;4.10;;;1.70;;
79464;SDS011;68932;47.410;8.232;2024-03-23T13:58:31;2.90;;;1.00;;
79464;SDS011;68932;47.410;8.232;2024-03-23T14:00:59;4.10;;;1.00;;
79464;SDS011;68932;47.410;8.232;2024-03-23T14:03:27;5.70;;;1.60;;
79464;SDS011;68932;47.410;8.232;2024-03-23T14:05:55;2.70;;;0.80;;
79464;SDS011;68932;47.410;8.232;2024-03-23T14:08:25;2.40;;;0.90;;
79464;SDS011;68932;47.410;8.232;2024-03-23T14:10:53;3.80;;;0.80;;
79464;SDS011;68932;47.410;8.232;2024-03-23T14:13:21;4.90;;;1.30;;
79464;SDS011;68932;47.410;8.232;2024-03-23T14:15:53;3.10;;;1.10;;
79464;SDS011;68932;47.410;8.232;2024-03-23T14:18:21;4.60;;;1.40;;
79464;SDS011;68932;47.410;8.232;2024-03-23T14:20:49;3.00;;;0.80;;
79464;SDS011;68932;47.410;8.232;2024-03-23T14:23:17;3.60;;;1.40;;
79464;SDS011;68932;47.410;8.232;2024-03-23T14:25:45;3.20;;;1.20;;
79464;SDS011;68932;47.410;8.232;2024-03-23T14:28:13;7.20;;;1.40;;
79464;SDS011;68932;47.410;8.232;2024-03-23T14:30:42;2.30;;;0.90;;
79464;SDS011;68932;47.410;8.232;2024-03-23T14:33:10;3.10;;;0.90;;
79464;SDS011;68932;47.410;8.232;2024-03-23T14:35:38;5.00;;;1.20;;
79464;SDS011;68932;47.410;8.232;2024-03-23T14:38:06;2.90;;;0.70;;
79464;SDS011;68932;47.410;8.232;2024-03-23T14:40:33;2.60;;;0.80;;
79464;SDS011;68932;47.410;8.232;2024-03-23T14:43:01;3.10;;;0.80;;
79464;SDS011;68932;47.410;8.232;2024-03-23T14:45:30;1.30;;;0.60;;
79464;SDS011;68932;47.410;8.232;2024-03-23T14:47:58;3.20;;;0.90;;
79464;SDS011;68932;47.410;8.232;2024-03-23T14:50:26;1.80;;;0.60;;
79464;SDS011;68932;47.410;8.232;2024-03-23T14:52:54;2.80;;;1.20;;
79464;SDS011;68932;47.410;8.232;2024-03-23T14:55:21;2.70;;;0.70;;
79464;SDS011;68932;47.410;8.232;2024-03-23T14:57:49;2.50;;;0.80;;
79464;SDS011;68932;47.410;8.232;2024-03-23T15:00:18;2.30;;;1.20;;
79464;SDS011;68932;47.410;8.232;2024-03-23T15:02:46;2.70;;;0.80;;
79464;SDS011;68932;47.410;8.232;2024-03-23T15:05:15;4.20;;;1.20;;
79464;SDS011;68932;47.410;8.232;2024-03-23T15:07:43;3.60;;;1.20;;
79464;SDS011;68932;47.410;8.232;2024-03-23T15:10:11;3.60;;;1.00;;
79464;SDS011;68932;47.410;8.232;2024-03-23T15:12:39;3.90;;;0.90;;
79464;SDS011;68932;47.410;8.232;2024-03-23T15:15:08;2.40;;;0.70;;
79464;SDS011;68932;47.410;8.232;2024-03-23T15:17:36;6.00;;;1.60;;
79464;SDS011;68932;47.410;8.232;2024-03-23T15:20:05;1.80;;;0.80;;
79464;SDS011;68932;47.410;8.232;2024-03-23T15:22:35;2.80;;;0.80;;
79464;SDS011;68932;47.410;8.232;2024-03-23T15:25:03;3.50;;;1.00;;
79464;SDS011;68932;47.410;8.232;2024-03-23T15:27:31;2.70;;;0.90;;
79464;SDS011;68932;47.410;8.232;2024-03-23T15:29:59;6.10;;;1.70;;
79464;SDS011;68932;47.410;8.232;2024-03-23T15:32:27;3.90;;;0.80;;
79464;SDS011;68932;47.410;8.232;2024-03-23T15:34:55;2.60;;;1.50;;
79464;SDS011;68932;47.410;8.232;2024-03-23T15:37:23;2.70;;;1.00;;
79464;SDS011;68932;47.410;8.232;2024-03-23T15:39:51;2.00;;;0.80;;
79464;SDS011;68932;47.410;8.232;2024-03-23T15:42:19;2.60;;;1.00;;
79464;SDS011;68932;47.410;8.232;2024-03-23T15:44:47;3.10;;;0.80;;
79464;SDS011;68932;47.410;8.232;2024-03-23T15:47:15;1.30;;;0.70;;
79464;SDS011;68932;47.410;8.232;2024-03-23T15:49:43;2.90;;;0.70;;
79464;SDS011;68932;47.410;8.232;2024-03-23T15:52:12;1.70;;;0.90;;
79464;SDS011;68932;47.410;8.232;2024-03-23T15:54:40;3.90;;;1.00;;
79464;SDS011;68932;47.410;8.232;2024-03-23T15:57:09;2.10;;;0.60;;